Time;durP1;ratioP1;P1;durP2;ratioP2;P2;SDS_P1;SDS_P2;PMS_P1;PMS_P2;Temp;Humidity;BMP_temperature;BMP_pressure;BME280_temperature;BME280_humidity;BME280_pressure;Samples;Min_cycle;Max_cycle;Signal;HPM_P1;HPM_P2
2023/08/21 00:00:46;;;;;;;1.40;1.13;;;;;;;29.70;45.95;102214.38;4923188;28;97358;-80
2023/08/21 00:03:12;;;;;;;1.70;1.30;;;;;;;29.71;45.93;102218.00;4923160;28;96604;-80
2023/08/21 00:05:39;;;;;;;2.53;1.13;;;;;;;29.70;45.97;102219.91;4921178;28;97388;-82
2023/08/21 00:08:05;;;;;;;1.95;1.10;;;;;;;29.69;45.94;102226.50;4922592;28;97330;-81
2023/08/21 00:10:32;;;;;;;2.22;1.05;;;;;;;29.70;46.33;102221.84;4919423;28;96885;-80
2023/08/21 00:12:59;;;;;;;1.73;1.10;;;;;;;29.69;46.20;102220.97;4922015;28;96896;-81
2023/08/21 00:15:25;;;;;;;1.95;1.20;;;;;;;29.70;45.94;102222.69;4919736;28;97799;-81
2023/08/21 00:17:52;;;;;;;1.70;1.00;;;;;;;29.69;46.21;102220.97;4923010;28;96821;-81
2023/08/21 00:20:19;;;;;;;1.65;1.13;;;;;;;29.70;46.03;102222.69;4919997;28;97430;-81
2023/08/21 00:22:45;;;;;;;2.08;1.13;;;;;;;29.70;45.93;102224.59;4923036;28;96777;-82
2023/08/21 00:25:12;;;;;;;1.55;1.15;;;;;;;29.69;46.18;102212.66;4919652;28;97752;-81
2023/08/21 00:27:38;;;;;;;2.28;1.25;;;;;;;29.69;45.89;102215.44;4922824;28;96731;-81
2023/08/21 00:30:05;;;;;;;1.63;1.17;;;;;;;29.69;46.23;102215.44;4900985;28;98104;-80
2023/08/21 00:32:32;;;;;;;1.58;0.95;;;;;;;29.70;45.88;102214.38;4919750;28;97007;-81
2023/08/21 00:34:59;;;;;;;1.45;1.00;;;;;;;29.69;46.12;102212.66;4921387;28;97234;-80
2023/08/21 00:37:25;;;;;;;1.75;1.30;;;;;;;29.69;46.11;102217.34;4901809;28;96964;-80
2023/08/21 00:39:52;;;;;;;1.13;0.80;;;;;;;29.69;46.27;102215.44;4917540;28;98421;-82
2023/08/21 00:42:18;;;;;;;1.42;1.00;;;;;;;29.68;46.11;102210.97;4916308;28;97242;-81
2023/08/21 00:44:45;;;;;;;1.40;0.90;;;;;;;29.69;46.04;102212.66;4920173;28;96761;-80
2023/08/21 00:47:11;;;;;;;1.30;1.05;;;;;;;29.68;46.23;102218.41;4911791;28;96817;-80
2023/08/21 00:49:39;;;;;;;1.75;1.00;;;;;;;29.68;46.13;102222.03;4917370;28;99108;-82
2023/08/21 00:52:08;;;;;;;1.38;0.90;;;;;;;29.68;46.05;102223.94;4901451;28;98642;-82
2023/08/21 00:54:36;;;;;;;1.70;1.00;;;;;;;29.68;46.22;102218.41;4907908;28;96729;-82
2023/08/21 00:57:02;;;;;;;1.67;1.23;;;;;;;29.67;46.13;102217.56;4914764;28;96688;-81
2023/08/21 00:59:29;;;;;;;1.60;1.10;;;;;;;29.68;46.04;102212.88;4917432;28;99294;-81
2023/08/21 01:01:56;;;;;;;2.08;1.20;;;;;;;29.67;45.94;102214.78;4920420;28;96998;-80
2023/08/21 01:04:23;;;;;;;2.15;1.10;;;;;;;29.66;46.00;102218.63;4917745;28;96548;-82
2023/08/21 01:06:50;;;;;;;1.85;1.00;;;;;;;29.65;46.29;102214.13;4901768;28;96750;-81
2023/08/21 01:09:26;;;;;;;1.73;1.15;;;;;;;29.66;46.06;102207.53;4918283;28;96877;-81
2023/08/21 01:12:09;;;;;;;1.60;1.00;;;;;;;29.66;45.90;102202.00;4926912;28;98556;-81
2023/08/21 01:14:48;;;;;;;2.30;1.20;;;;;;;29.66;46.08;102199.22;4919591;28;96683;-81
2023/08/21 01:17:17;;;;;;;1.88;1.20;;;;;;;29.66;45.95;102202.00;4916986;28;96727;-80
2023/08/21 01:19:47;;;;;;;1.75;0.90;;;;;;;29.66;46.04;102204.78;4918559;28;98575;-82
2023/08/21 01:22:14;;;;;;;1.73;1.02;;;;;;;29.65;45.95;102203.06;4913652;28;99925;-82
2023/08/21 01:24:41;;;;;;;1.48;0.82;;;;;;;29.64;45.95;102201.34;4899974;28;96959;-83
2023/08/21 01:27:09;;;;;;;2.03;1.00;;;;;;;29.65;45.86;102207.75;4911711;28;96926;-81
2023/08/21 01:29:35;;;;;;;1.42;0.98;;;;;;;29.65;45.90;102203.06;4917866;28;96885;-81
2023/08/21 01:32:34;;;;;;;1.27;0.80;;;;;;;29.65;46.23;102202.19;4917938;28;96852;-83
2023/08/21 01:35:03;;;;;;;1.15;1.05;;;;;;;29.64;46.13;102206.03;4915831;28;97182;-81
2023/08/21 01:37:30;;;;;;;1.58;0.85;;;;;;;29.64;46.32;102208.78;4914561;28;96801;-81
2023/08/21 01:40:00;;;;;;;1.80;1.00;;;;;;;29.64;46.02;102206.03;4900300;28;99573;-82
2023/08/21 01:42:26;;;;;;;1.20;0.95;;;;;;;29.63;45.90;102210.72;4914873;28;99092;-82
2023/08/21 01:44:53;;;;;;;1.63;0.88;;;;;;;29.63;45.93;102205.16;4915812;28;96802;-81
2023/08/21 01:47:19;;;;;;;1.42;1.00;;;;;;;29.64;46.12;102206.03;4909023;28;97100;-81
2023/08/21 01:49:46;;;;;;;1.38;0.98;;;;;;;29.64;46.03;102204.13;4920236;28;97368;-80
2023/08/21 01:52:12;;;;;;;2.13;1.00;;;;;;;29.63;45.95;102199.63;4894657;28;100228;-83
2023/08/21 01:54:39;;;;;;;1.40;1.08;;;;;;;29.62;45.90;102209.00;4917499;28;97214;-81
2023/08/21 01:57:06;;;;;;;1.38;0.88;;;;;;;29.63;45.81;102199.63;4915040;28;96824;-80
2023/08/21 01:59:32;;;;;;;1.98;1.02;;;;;;;29.62;46.09;102200.69;4911096;28;100339;-81
2023/08/21 02:01:59;;;;;;;1.90;0.98;;;;;;;29.62;45.87;102195.16;4919335;28;96816;-81
2023/08/21 02:04:25;;;;;;;1.70;0.93;;;;;;;29.62;46.14;102197.06;4918812;28;96404;-80
2023/08/21 02:06:52;;;;;;;1.20;0.90;;;;;;;29.62;46.04;102194.31;4915824;28;97513;-81
2023/08/21 02:09:21;;;;;;;2.25;1.17;;;;;;;29.62;46.10;102195.16;4918130;28;98452;-81
2023/08/21 02:11:47;;;;;;;1.25;0.80;;;;;;;29.62;45.79;102197.06;4916542;28;97931;-82
2023/08/21 02:14:14;;;;;;;1.45;0.85;;;;;;;29.62;46.15;102197.06;4907286;28;96864;-83
2023/08/21 02:16:40;;;;;;;1.25;0.90;;;;;;;29.61;45.82;102198.97;4918272;28;96844;-80
2023/08/21 02:19:07;;;;;;;1.23;0.98;;;;;;;29.61;46.02;102203.66;4917573;28;100297;-81
2023/08/21 02:21:34;;;;;;;1.58;1.00;;;;;;;29.61;46.01;102198.13;4918010;28;97024;-81
2023/08/21 02:24:00;;;;;;;1.02;0.80;;;;;;;29.61;45.95;102200.91;4917865;28;96824;-80
2023/08/21 02:26:27;;;;;;;1.52;1.13;;;;;;;29.60;46.20;102191.72;4918379;28;96879;-83
2023/08/21 02:28:54;;;;;;;1.27;0.88;;;;;;;29.60;45.98;102191.72;4917019;28;98844;-81
2023/08/21 02:31:20;;;;;;;1.90;1.15;;;;;;;29.59;45.82;102190.03;4917011;28;98559;-84
2023/08/21 02:33:47;;;;;;;1.00;0.65;;;;;;;29.59;46.11;102190.03;4923272;28;97050;-83
2023/08/21 02:36:13;;;;;;;1.23;0.93;;;;;;;29.60;45.82;102188.09;4912868;28;96821;-80
2023/08/21 02:38:40;;;;;;;1.25;0.70;;;;;;;29.59;45.98;102190.03;4917927;28;98932;-81
2023/08/21 02:41:07;;;;;;;1.45;0.80;;;;;;;29.59;45.98;102192.78;4917261;28;98209;-82
2023/08/21 02:43:34;;;;;;;1.20;0.70;;;;;;;29.59;45.97;102201.09;4919900;28;96705;-81
2023/08/21 02:46:00;;;;;;;1.30;0.82;;;;;;;29.59;45.70;102201.09;4915901;28;96613;-80
2023/08/21 02:48:27;;;;;;;1.08;0.68;;;;;;;29.59;45.82;102197.47;4916917;28;97599;-82
2023/08/21 02:50:53;;;;;;;1.02;0.70;;;;;;;29.58;45.86;102195.75;4917637;28;96675;-81
2023/08/21 02:53:20;;;;;;;1.40;0.93;;;;;;;29.59;46.01;102194.72;4909628;28;96725;-81
2023/08/21 02:55:46;;;;;;;0.98;0.70;;;;;;;29.57;45.84;102197.69;4901182;28;96780;-80
2023/08/21 02:58:13;;;;;;;1.60;0.73;;;;;;;29.57;45.82;102194.06;4914665;28;98343;-83
2023/08/21 03:00:40;;;;;;;1.17;0.80;;;;;;;29.56;46.05;102193.19;4901798;28;100182;-82
2023/08/21 03:03:06;;;;;;;1.35;0.82;;;;;;;29.56;45.99;102201.50;4916488;28;96642;-80
2023/08/21 03:05:33;;;;;;;1.20;0.90;;;;;;;29.56;46.17;102195.09;4918285;28;96650;-80
2023/08/21 03:07:59;;;;;;;1.60;0.70;;;;;;;29.56;45.86;102193.19;4916679;28;96669;-81
2023/08/21 03:10:28;;;;;;;1.13;0.70;;;;;;;29.56;45.76;102195.97;4916333;28;100343;-82
2023/08/21 03:12:54;;;;;;;0.85;0.70;;;;;;;29.56;46.19;102192.34;4917462;28;96648;-81
2023/08/21 03:15:21;;;;;;;1.35;0.80;;;;;;;29.55;46.18;102198.94;4916341;28;96680;-80
2023/08/21 03:17:48;;;;;;;1.23;0.90;;;;;;;29.55;46.21;102207.25;4900234;28;97911;-80
2023/08/21 03:20:14;;;;;;;0.80;0.60;;;;;;;29.55;46.14;102204.47;4900581;28;98354;-80
2023/08/21 03:22:41;;;;;;;2.10;0.82;;;;;;;29.54;46.00;102202.75;4916090;28;96891;-80
2023/08/21 03:25:08;;;;;;;1.85;0.93;;;;;;;29.54;45.93;102200.84;4899878;28;96667;-81
2023/08/21 03:27:38;;;;;;;1.30;0.70;;;;;;;29.54;45.93;102206.38;4915177;28;99097;-81
2023/08/21 03:30:07;;;;;;;1.27;0.63;;;;;;;29.52;45.98;102202.09;4894243;28;99519;-80
2023/08/21 03:32:36;;;;;;;1.38;0.80;;;;;;;29.52;45.90;102197.44;4914771;28;96622;-81
2023/08/21 03:35:03;;;;;;;1.67;0.70;;;;;;;29.52;45.90;102205.72;4890852;28;97000;-83
2023/08/21 03:37:30;;;;;;;1.20;1.00;;;;;;;29.53;46.12;102201.03;4911852;28;97150;-80
2023/08/21 03:39:57;;;;;;;0.90;0.80;;;;;;;29.52;46.11;102200.19;4898250;28;97066;-82
2023/08/21 03:42:24;;;;;;;1.17;0.88;;;;;;;29.51;46.12;102195.72;4916260;28;97339;-81
2023/08/21 03:44:50;;;;;;;0.80;0.60;;;;;;;29.51;45.75;102192.09;4927210;28;96203;-82
2023/08/21 03:47:17;;;;;;;1.08;0.73;;;;;;;29.52;45.68;102193.81;4928993;28;100477;-81
2023/08/21 03:49:52;;;;;;;0.85;0.73;;;;;;;29.51;46.01;102195.72;4910019;28;97355;-80
2023/08/21 03:52:21;;;;;;;1.45;0.80;;;;;;;29.50;45.96;102196.78;4922024;28;96670;-81
2023/08/21 03:54:48;;;;;;;1.20;0.70;;;;;;;29.50;45.58;102196.78;4922369;28;96634;-80
2023/08/21 03:57:14;;;;;;;1.15;0.68;;;;;;;29.50;46.09;102199.53;4918508;28;98443;-82
2023/08/21 03:59:42;;;;;;;0.90;0.63;;;;;;;29.51;46.01;102197.63;4916566;28;96668;-80
2023/08/21 04:02:08;;;;;;;1.00;0.70;;;;;;;29.50;46.04;102196.78;4919680;28;96637;-82
2023/08/21 04:04:35;;;;;;;0.90;0.70;;;;;;;29.49;45.87;102197.81;4923187;28;95966;-83
2023/08/21 04:07:01;;;;;;;1.35;0.70;;;;;;;29.49;45.87;102194.22;4916763;28;96981;-80
2023/08/21 04:09:28;;;;;;;0.93;0.50;;;;;;;29.49;46.14;102199.75;4918516;28;96705;-80
2023/08/21 04:11:54;;;;;;;1.35;0.60;;;;;;;29.49;46.02;102197.81;4923395;28;96559;-80
2023/08/21 04:14:21;;;;;;;1.50;0.70;;;;;;;29.49;46.02;102206.13;4922278;28;96089;-82
2023/08/21 04:16:47;;;;;;;1.23;0.70;;;;;;;29.47;45.94;102208.25;4921027;28;98354;-81
2023/08/21 04:19:14;;;;;;;1.08;0.70;;;;;;;29.48;45.98;102206.34;4921213;28;99471;-82
2023/08/21 04:21:40;;;;;;;0.82;0.60;;;;;;;29.47;45.81;102194.41;4905357;28;96653;-81
2023/08/21 04:24:07;;;;;;;1.25;0.80;;;;;;;29.47;46.18;102199.94;4918236;28;96707;-83
2023/08/21 04:26:33;;;;;;;1.63;0.70;;;;;;;29.47;46.16;102205.47;4916163;28;100579;-80
2023/08/21 04:29:00;;;;;;;1.10;0.80;;;;;;;29.47;45.67;102202.72;4899411;28;96865;-82
2023/08/21 04:31:28;;;;;;;1.02;0.70;;;;;;;29.46;45.77;102198.22;4900095;28;98346;-81
2023/08/21 04:33:55;;;;;;;2.03;0.60;;;;;;;29.47;45.83;102199.94;4903739;28;97069;-82
2023/08/21 04:36:22;;;;;;;1.38;0.80;;;;;;;29.48;45.91;102203.56;4904757;28;100259;-83
2023/08/21 04:38:49;;;;;;;1.83;0.70;;;;;;;29.46;46.09;102206.53;4919758;28;98980;-83
2023/08/21 04:41:16;;;;;;;1.27;0.80;;;;;;;29.44;45.94;102205.88;4919922;28;96831;-83
2023/08/21 04:43:45;;;;;;;1.33;0.85;;;;;;;29.45;45.73;102213.13;4918788;28;96715;-80
2023/08/21 04:46:11;;;;;;;0.95;0.68;;;;;;;29.45;45.92;102213.13;4904267;28;99234;-80
2023/08/21 04:48:41;;;;;;;1.02;0.75;;;;;;;29.44;45.76;102208.66;4920602;28;96566;-79
2023/08/21 04:51:07;;;;;;;0.95;0.68;;;;;;;29.43;45.68;102209.69;4919063;28;96932;-82
2023/08/21 04:53:35;;;;;;;0.95;0.52;;;;;;;29.45;45.96;102215.03;4920497;28;96642;-81
2023/08/21 04:56:03;;;;;;;1.25;0.60;;;;;;;29.42;46.13;102210.72;4904054;28;97701;-80
2023/08/21 04:58:31;;;;;;;1.02;0.75;;;;;;;29.43;45.87;102220.78;4919814;28;100350;-80
2023/08/21 05:00:59;;;;;;;1.17;0.50;;;;;;;29.44;45.84;102218.88;4920220;28;95859;-80
2023/08/21 05:03:26;;;;;;;0.93;0.60;;;;;;;29.42;45.94;102222.66;4902685;28;96659;-82
2023/08/21 05:05:54;;;;;;;0.93;0.60;;;;;;;29.44;45.78;102229.94;4913420;28;99457;-80
2023/08/21 05:08:23;;;;;;;0.85;0.50;;;;;;;29.43;45.76;102229.06;4915863;28;100158;-80
2023/08/21 05:11:00;;;;;;;0.98;0.60;;;;;;;29.44;45.77;102227.16;4917330;28;96667;-80
2023/08/21 05:13:30;;;;;;;1.00;0.70;;;;;;;29.41;45.93;102229.25;4901492;28;96864;-81
2023/08/21 05:15:58;;;;;;;1.08;0.93;;;;;;;29.42;46.08;102233.72;4910917;28;100616;-80
2023/08/21 05:18:28;;;;;;;1.05;0.60;;;;;;;29.43;45.91;102234.63;4912787;28;96724;-81
2023/08/21 05:20:56;;;;;;;1.58;0.77;;;;;;;29.42;46.05;102239.25;4913634;28;96900;-81
2023/08/21 05:23:23;;;;;;;1.05;0.57;;;;;;;29.42;45.90;102236.50;4897954;28;96669;-80
2023/08/21 05:25:53;;;;;;;1.50;0.80;;;;;;;29.42;45.99;102232.88;4917483;28;96918;-80
2023/08/21 05:28:19;;;;;;;1.20;0.60;;;;;;;29.42;45.84;102230.09;4918096;28;98542;-81
2023/08/21 05:30:48;;;;;;;1.10;0.60;;;;;;;29.43;45.90;102237.38;4900419;28;96832;-82
2023/08/21 05:33:16;;;;;;;1.23;0.70;;;;;;;29.42;45.63;102238.41;4903861;28;97001;-84
2023/08/21 05:35:44;;;;;;;0.88;0.70;;;;;;;29.42;45.82;102241.16;4914616;28;100297;-81
2023/08/21 05:38:11;;;;;;;1.00;0.57;;;;;;;29.42;46.06;102243.94;4922497;28;99487;-81
2023/08/21 05:40:37;;;;;;;0.90;0.60;;;;;;;29.43;46.05;102248.44;4920622;28;96665;-81
2023/08/21 05:43:04;;;;;;;0.77;0.55;;;;;;;29.42;46.00;102242.03;4904774;28;96720;-80
2023/08/21 05:45:31;;;;;;;0.90;0.63;;;;;;;29.44;45.78;102246.53;4914616;28;99103;-82
2023/08/21 05:47:58;;;;;;;0.80;0.70;;;;;;;29.43;45.82;102256.75;4920992;28;99075;-80
2023/08/21 05:50:24;;;;;;;0.60;0.50;;;;;;;29.44;45.89;102264.00;4923638;28;96739;-82
2023/08/21 05:52:51;;;;;;;1.02;0.73;;;;;;;29.44;45.86;102261.25;4921301;28;96935;-80
2023/08/21 05:55:17;;;;;;;0.93;0.60;;;;;;;29.44;45.92;102266.78;4907202;28;101048;-80
2023/08/21 05:57:44;;;;;;;0.82;0.45;;;;;;;29.44;45.83;102266.78;4909051;28;96724;-81
2023/08/21 06:00:12;;;;;;;1.45;0.90;;;;;;;29.43;45.87;102265.06;4894786;28;97703;-82
2023/08/21 06:02:42;;;;;;;1.05;0.77;;;;;;;29.42;45.97;102269.72;4911410;28;97018;-81
2023/08/21 06:05:16;;;;;;;0.70;0.47;;;;;;;29.43;45.88;102267.81;4894683;28;96869;-80
2023/08/21 06:07:46;;;;;;;0.60;0.50;;;;;;;29.43;46.07;102262.28;4895048;28;98582;-80
2023/08/21 06:10:14;;;;;;;1.00;0.60;;;;;;;29.44;46.12;102260.38;4911405;28;97295;-82
2023/08/21 06:12:41;;;;;;;0.90;0.60;;;;;;;29.44;45.88;102271.44;4899052;28;96947;-81
2023/08/21 06:15:09;;;;;;;0.90;0.60;;;;;;;29.43;45.78;102267.81;4913058;28;99006;-80
2023/08/21 06:17:36;;;;;;;1.27;0.70;;;;;;;29.44;45.88;102266.78;4913651;28;98889;-80
2023/08/21 06:20:05;;;;;;;1.25;0.70;;;;;;;29.44;46.10;102266.78;4916982;28;96925;-80
2023/08/21 06:22:32;;;;;;;0.90;0.60;;;;;;;29.44;45.99;102269.53;4919230;28;97395;-81
2023/08/21 06:24:59;;;;;;;1.23;0.70;;;;;;;29.45;46.06;102278.69;4913872;28;98557;-81
2023/08/21 06:27:25;;;;;;;1.23;0.70;;;;;;;29.45;45.87;102270.41;4917421;28;98871;-81
2023/08/21 06:29:58;;;;;;;1.38;0.60;;;;;;;29.45;45.49;102274.03;4899639;28;98069;-81
2023/08/21 06:32:25;;;;;;;0.80;0.50;;;;;;;29.45;46.12;102271.25;4915162;28;97342;-81
2023/08/21 06:34:51;;;;;;;1.67;0.93;;;;;;;29.46;45.88;102272.09;4899494;28;96887;-81
2023/08/21 06:37:18;;;;;;;1.08;0.63;;;;;;;29.47;45.89;102271.91;4919111;28;96809;-80
2023/08/21 06:39:45;;;;;;;1.25;0.90;;;;;;;29.47;46.00;102279.34;4918501;28;96745;-82
2023/08/21 06:42:12;;;;;;;0.82;0.60;;;;;;;29.46;45.85;102272.97;4917898;28;96968;-81
2023/08/21 06:44:45;;;;;;;0.85;0.70;;;;;;;29.47;46.01;102276.59;4914781;28;97611;-80
2023/08/21 06:47:12;;;;;;;0.73;0.60;;;;;;;29.47;45.65;102273.81;4911209;28;97521;-80
2023/08/21 06:49:38;;;;;;;1.38;0.80;;;;;;;29.47;45.77;102280.22;4913203;28;97182;-80
2023/08/21 06:52:05;;;;;;;1.05;0.70;;;;;;;29.48;45.76;102281.94;4914437;28;97069;-80
2023/08/21 06:54:32;;;;;;;1.23;0.70;;;;;;;29.48;45.79;102281.06;4907967;28;98638;-81
2023/08/21 06:56:58;;;;;;;0.77;0.50;;;;;;;29.48;45.67;102283.84;4907984;28;98623;-80
2023/08/21 06:59:25;;;;;;;0.68;0.55;;;;;;;29.47;45.88;102277.44;4896244;28;96938;-80
2023/08/21 07:01:51;;;;;;;0.80;0.55;;;;;;;29.48;45.46;102284.69;4908227;28;96888;-80
2023/08/21 07:04:18;;;;;;;0.80;0.60;;;;;;;29.48;45.99;102283.84;4902889;28;96918;-82
2023/08/21 07:06:44;;;;;;;1.30;0.80;;;;;;;29.49;45.91;102282.78;4905988;28;96794;-81
2023/08/21 07:09:11;;;;;;;0.73;0.50;;;;;;;29.49;45.63;102282.78;4912560;28;96885;-80
2023/08/21 07:11:37;;;;;;;1.08;0.60;;;;;;;29.49;45.82;102280.00;4916935;28;96840;-81
2023/08/21 07:14:04;;;;;;;1.55;0.85;;;;;;;29.49;45.54;102285.56;4909750;28;98310;-84
2023/08/21 07:16:30;;;;;;;1.92;0.85;;;;;;;29.49;45.82;102289.19;4914279;28;98464;-80
2023/08/21 07:18:57;;;;;;;2.35;0.70;;;;;;;29.49;45.54;102286.41;4897834;28;97846;-81
2023/08/21 07:21:23;;;;;;;0.70;0.50;;;;;;;29.50;45.88;102290.03;4885554;28;98518;-80
2023/08/21 07:24:00;;;;;;;1.27;0.57;;;;;;;29.49;45.57;102291.09;4895698;28;96937;-80
2023/08/21 07:26:26;;;;;;;1.23;0.63;;;;;;;29.50;45.69;102290.88;4904580;28;99784;-80
2023/08/21 07:28:53;;;;;;;0.63;0.50;;;;;;;29.50;45.86;102293.66;4892052;28;96787;-80
2023/08/21 07:31:20;;;;;;;0.82;0.70;;;;;;;29.51;45.76;102295.38;4904643;28;96867;-81
2023/08/21 07:33:46;;;;;;;2.15;0.80;;;;;;;29.51;45.51;102292.59;4912889;28;97069;-80
2023/08/21 07:36:16;;;;;;;1.33;0.60;;;;;;;29.52;45.63;102282.38;4913642;28;98945;-80
2023/08/21 07:38:44;;;;;;;1.30;0.80;;;;;;;29.52;45.60;102290.69;4907913;28;96969;-80
2023/08/21 07:41:11;;;;;;;1.33;0.60;;;;;;;29.54;45.72;102288.56;4910173;28;97340;-80
2023/08/21 07:43:41;;;;;;;1.13;0.80;;;;;;;29.54;45.25;102286.66;4910614;28;97521;-80
2023/08/21 07:46:13;;;;;;;0.93;0.63;;;;;;;29.54;45.45;102294.13;4914518;28;96871;-80
2023/08/21 07:48:40;;;;;;;1.25;0.70;;;;;;;29.55;45.67;102290.28;4893603;28;97047;-80
2023/08/21 07:51:06;;;;;;;2.25;0.80;;;;;;;29.56;45.47;102295.63;4909460;28;96659;-80
2023/08/21 07:53:34;;;;;;;1.38;0.77;;;;;;;29.56;45.43;102294.78;4911748;28;96711;-81
2023/08/21 07:56:03;;;;;;;1.30;0.80;;;;;;;29.57;45.40;102293.72;4907892;28;97234;-83
2023/08/21 07:58:31;;;;;;;1.70;0.80;;;;;;;29.56;45.30;102287.31;4906376;28;96699;-80
2023/08/21 08:00:58;;;;;;;1.60;0.77;;;;;;;29.56;45.44;102287.31;4896978;28;96977;-80
2023/08/21 08:03:25;;;;;;;1.25;0.88;;;;;;;29.57;45.41;102294.56;4905202;28;96876;-80
2023/08/21 08:05:52;;;;;;;2.58;0.80;;;;;;;29.59;45.45;102294.38;4912719;28;96870;-80
2023/08/21 08:08:21;;;;;;;2.83;0.63;;;;;;;29.59;45.55;102294.38;4912555;28;96632;-81
2023/08/21 08:10:48;;;;;;;1.42;0.93;;;;;;;29.59;45.16;102298.00;4909210;28;96878;-80
2023/08/21 08:13:14;;;;;;;1.75;1.00;;;;;;;29.61;45.41;102292.25;4909679;28;96798;-80
2023/08/21 08:15:41;;;;;;;1.60;0.90;;;;;;;29.60;45.40;102294.19;4908779;28;97175;-80
2023/08/21 08:18:12;;;;;;;1.58;0.90;;;;;;;29.61;45.40;102293.13;4907334;28;96639;-80
2023/08/21 08:20:39;;;;;;;1.38;0.70;;;;;;;29.62;44.96;102292.06;4909192;28;96778;-80
2023/08/21 08:23:05;;;;;;;1.85;0.80;;;;;;;29.61;45.15;102293.13;4907198;28;97792;-82
2023/08/21 08:25:33;;;;;;;1.58;0.80;;;;;;;29.63;45.11;102298.47;4914166;28;98151;-80
2023/08/21 08:27:59;;;;;;;1.60;1.02;;;;;;;29.63;45.21;102299.31;4910297;28;98197;-81
2023/08/21 08:30:26;;;;;;;1.40;0.88;;;;;;;29.65;45.39;102301.88;4912597;28;96772;-80
2023/08/21 08:32:53;;;;;;;0.88;0.63;;;;;;;29.65;45.28;102299.97;4905385;28;96988;-80
2023/08/21 08:35:19;;;;;;;1.60;0.90;;;;;;;29.65;45.16;102301.88;4908617;28;96898;-80
2023/08/21 08:37:46;;;;;;;2.05;1.08;;;;;;;29.64;45.42;102301.03;4910421;28;97313;-81
2023/08/21 08:40:12;;;;;;;0.90;0.70;;;;;;;29.65;45.26;102299.97;4912964;28;96848;-81
2023/08/21 08:42:39;;;;;;;1.40;0.90;;;;;;;29.65;45.40;102297.19;4914268;28;98678;-81
2023/08/21 08:45:07;;;;;;;1.45;0.80;;;;;;;29.67;45.36;102292.31;4909874;28;97439;-80
2023/08/21 08:47:35;;;;;;;1.55;0.70;;;;;;;29.66;45.16;102296.13;4912492;28;96798;-81
2023/08/21 08:50:05;;;;;;;0.90;0.70;;;;;;;29.67;45.52;102286.78;4910162;28;97083;-81
2023/08/21 08:52:35;;;;;;;2.00;0.90;;;;;;;29.67;45.27;102297.84;4912151;28;98033;-80
2023/08/21 08:55:03;;;;;;;1.40;0.80;;;;;;;29.67;45.27;102297.00;4909943;28;96951;-80
2023/08/21 08:57:30;;;;;;;1.10;0.50;;;;;;;29.69;45.25;102298.50;4925409;28;96653;-82
2023/08/21 08:59:57;;;;;;;1.80;0.90;;;;;;;29.69;45.32;102301.28;4911282;28;97060;-80
2023/08/21 09:02:26;;;;;;;1.20;0.80;;;;;;;29.69;45.25;102304.03;4908089;28;96962;-80
2023/08/21 09:04:53;;;;;;;1.95;0.90;;;;;;;29.70;44.97;102297.44;4914376;28;96903;-80
2023/08/21 09:07:20;;;;;;;2.55;0.90;;;;;;;29.70;45.01;102303.00;4905296;28;96091;-80
2023/08/21 09:09:52;;;;;;;2.15;0.98;;;;;;;29.72;45.36;102300.03;4906877;28;96663;-80
2023/08/21 09:12:20;;;;;;;1.52;0.80;;;;;;;29.72;45.05;102291.72;4916984;28;98753;-80
2023/08/21 09:14:47;;;;;;;1.52;0.88;;;;;;;29.72;45.07;102291.72;4906331;28;96984;-80
2023/08/21 09:17:15;;;;;;;1.63;0.80;;;;;;;29.73;45.25;102297.09;4902538;28;97908;-80
2023/08/21 09:19:43;;;;;;;1.73;0.73;;;;;;;29.72;45.01;102287.03;4912166;28;97039;-80
2023/08/21 09:22:20;;;;;;;1.33;0.73;;;;;;;29.73;45.07;102293.47;4918935;28;97854;-81
2023/08/21 09:25:00;;;;;;;3.30;1.05;;;;;;;29.73;44.99;102294.31;4918842;28;97035;-80
2023/08/21 09:27:26;;;;;;;1.20;0.80;;;;;;;29.73;44.90;102291.53;4916398;28;96842;-80
2023/08/21 09:29:53;;;;;;;1.63;0.98;;;;;;;29.74;44.78;102286.88;4912679;28;97013;-80
2023/08/21 09:32:20;;;;;;;1.95;0.80;;;;;;;29.74;44.94;102289.63;4919967;28;100484;-80
2023/08/21 09:34:46;;;;;;;1.60;0.88;;;;;;;29.75;44.94;102284.94;4910692;28;96634;-82
2023/08/21 09:37:13;;;;;;;2.08;0.93;;;;;;;29.75;44.88;102291.34;4913340;28;96739;-80
2023/08/21 09:39:40;;;;;;;0.95;0.63;;;;;;;29.74;45.24;102289.63;4916955;28;97039;-80
2023/08/21 09:42:07;;;;;;;1.50;0.68;;;;;;;29.75;44.87;102285.81;4914314;28;98128;-82
2023/08/21 09:44:43;;;;;;;1.08;0.73;;;;;;;29.75;45.12;102280.28;4904425;28;96874;-81
2023/08/21 09:47:11;;;;;;;2.30;0.90;;;;;;;29.75;45.04;102293.25;4900461;28;97508;-83
2023/08/21 09:49:39;;;;;;;1.50;0.70;;;;;;;29.75;45.12;102280.28;4902260;28;97731;-80
2023/08/21 09:52:11;;;;;;;1.42;0.70;;;;;;;29.75;44.97;102280.28;4890988;28;98212;-84
2023/08/21 09:54:39;;;;;;;1.10;0.80;;;;;;;29.76;44.75;102286.66;4915177;28;96640;-80
2023/08/21 09:57:05;;;;;;;1.27;0.70;;;;;;;29.76;45.38;102283.91;4894260;28;96795;-81
2023/08/21 09:59:32;;;;;;;1.45;0.70;;;;;;;29.77;44.75;102288.38;4920722;28;96968;-80
2023/08/21 10:02:00;;;;;;;1.83;0.80;;;;;;;29.77;44.82;102277.28;4919973;28;97245;-80
2023/08/21 10:04:29;;;;;;;1.48;0.82;;;;;;;29.77;45.26;102293.91;4916797;28;98568;-81
2023/08/21 10:06:57;;;;;;;1.42;0.90;;;;;;;29.76;44.79;102284.75;4904811;28;96447;-80
2023/08/21 10:09:25;;;;;;;1.00;0.60;;;;;;;29.77;44.94;102280.06;4920140;28;96770;-80
2023/08/21 10:11:53;;;;;;;2.33;0.90;;;;;;;29.77;44.96;102278.16;4923738;28;98921;-80
2023/08/21 10:14:23;;;;;;;1.80;0.60;;;;;;;29.78;44.73;102268.78;4923821;28;97923;-82
2023/08/21 10:16:52;;;;;;;1.20;0.70;;;;;;;29.77;44.81;102266.22;4925611;28;97165;-81
2023/08/21 10:19:19;;;;;;;1.50;0.95;;;;;;;29.79;44.65;102270.50;4918605;28;97669;-80
2023/08/21 10:21:49;;;;;;;1.05;0.80;;;;;;;29.79;44.99;102264.97;4921832;28;97326;-81
2023/08/21 10:24:27;;;;;;;1.17;0.73;;;;;;;29.79;44.91;102262.19;4923250;28;97815;-80
2023/08/21 10:26:54;;;;;;;1.13;0.60;;;;;;;29.79;45.08;102258.56;4912106;28;96834;-82
2023/08/21 10:29:20;;;;;;;1.48;0.70;;;;;;;29.79;45.08;102264.09;4914210;28;97807;-80
2023/08/21 10:31:58;;;;;;;1.30;0.80;;;;;;;29.81;44.72;102259.22;4912216;28;97319;-83
2023/08/21 10:34:37;;;;;;;1.80;0.70;;;;;;;29.81;44.90;102259.22;4922339;28;96620;-81
2023/08/21 10:37:07;;;;;;;1.10;0.70;;;;;;;29.80;44.91;102251.97;4920863;28;96463;-81
2023/08/21 10:39:37;;;;;;;1.45;0.70;;;;;;;29.81;44.72;102262.00;4912073;28;96617;-80
2023/08/21 10:42:09;;;;;;;1.48;0.60;;;;;;;29.81;44.96;102262.84;4914138;28;97483;-80
2023/08/21 10:44:42;;;;;;;2.58;1.00;;;;;;;29.82;45.09;102260.94;4908844;28;98003;-80
2023/08/21 10:47:27;;;;;;;1.05;0.70;;;;;;;29.82;44.94;102256.25;4909626;28;96725;-80
2023/08/21 10:49:56;;;;;;;1.63;0.77;;;;;;;29.82;44.86;102258.16;4905652;28;96881;-81
2023/08/21 10:52:25;;;;;;;1.52;0.60;;;;;;;29.82;44.78;102267.31;4909375;28;98248;-80
2023/08/21 10:54:54;;;;;;;0.70;0.65;;;;;;;29.82;44.80;102261.78;4907437;28;96838;-80
2023/08/21 10:57:22;;;;;;;1.20;0.63;;;;;;;29.83;44.96;102268.19;4905209;28;97388;-80
2023/08/21 10:59:54;;;;;;;1.40;0.77;;;;;;;29.84;44.93;102269.91;4897386;28;97557;-80
2023/08/21 11:02:21;;;;;;;1.55;0.80;;;;;;;29.84;44.96;102272.66;4899853;28;96859;-80
2023/08/21 11:04:50;;;;;;;2.45;0.80;;;;;;;29.83;44.68;102270.94;4910479;28;96772;-80
2023/08/21 11:07:17;;;;;;;1.27;0.80;;;;;;;29.84;44.91;102278.22;4905120;28;96728;-79
2023/08/21 11:09:44;;;;;;;1.00;0.60;;;;;;;29.85;45.27;102282.69;4909512;28;96824;-79
2023/08/21 11:12:20;;;;;;;1.27;0.80;;;;;;;29.85;44.68;102277.16;4906558;28;96927;-80
2023/08/21 11:14:47;;;;;;;1.85;0.88;;;;;;;29.85;44.79;102279.91;4910138;28;96850;-81
2023/08/21 11:17:14;;;;;;;1.90;0.85;;;;;;;29.85;44.76;102268.84;4906398;28;97146;-80
2023/08/21 11:19:41;;;;;;;1.42;0.80;;;;;;;29.85;44.62;102268.84;4917594;28;96985;-81
2023/08/21 11:22:08;;;;;;;1.80;0.70;;;;;;;29.84;44.71;102267.97;4909718;28;96742;-81
2023/08/21 11:24:38;;;;;;;0.85;0.68;;;;;;;29.86;44.69;102265.88;4907768;28;97485;-81
2023/08/21 11:27:05;;;;;;;1.77;0.75;;;;;;;29.87;44.95;102269.50;4914722;28;96789;-82